LIPSM EGPD-ENBR
Flight info
| Callsign | LIPSM |
|---|---|
| Flight time | N/A |
| Altitude | 9000 |
| Route | ADN DCT BEREP DCT MODNI |
| Aircraft | PA34/L-SDFGRY/S |
Departure
| Time | 2026-04-27 08:17 |
|---|---|
| Airport | Aberdeen International Airport (EGPD) |
Arrival
| Time | N/A |
|---|---|
| Airport | Bergen Airport, Flesland (ENBR) |
| Time | Latitude | Longitude | Altitude | Speed | Heading |
|---|---|---|---|---|---|
| 2026-04-27 08:04 | 57.20341 | -2.19503 | 218 ft | 0 kts | 242° |
| 2026-04-27 08:13 | 57.20340 | -2.19504 | 218 ft | 0 kts | 240° |
| 2026-04-27 08:13 | 57.20340 | -2.19506 | 218 ft | 0 kts | 238° |
| 2026-04-27 08:13 | 57.20336 | -2.19513 | 218 ft | 4 kts | 218° |
| 2026-04-27 08:14 | 57.20250 | -2.19493 | 218 ft | 14 kts | 162° |
| 2026-04-27 08:14 | 57.20179 | -2.19443 | 218 ft | 9 kts | 155° |
| 2026-04-27 08:14 | 57.20113 | -2.19399 | 218 ft | 9 kts | 167° |
| 2026-04-27 08:14 | 57.20047 | -2.19391 | 218 ft | 8 kts | 181° |
| 2026-04-27 08:15 | 57.19989 | -2.19423 | 218 ft | 8 kts | 225° |
| 2026-04-27 08:15 | 57.19952 | -2.19504 | 218 ft | 7 kts | 231° |
| 2026-04-27 08:15 | 57.19938 | -2.19592 | 218 ft | 6 kts | 287° |
| 2026-04-27 08:15 | 57.19975 | -2.19625 | 218 ft | 5 kts | 350° |
| 2026-04-27 08:16 | 57.20039 | -2.19669 | 218 ft | 22 kts | 338° |
| 2026-04-27 08:16 | 57.20395 | -2.19933 | 218 ft | 83 kts | 336° |
| 2026-04-27 08:16 | 57.21047 | -2.20358 | 352 ft | 97 kts | 344° |
| 2026-04-27 08:16 | 57.21767 | -2.20697 | 505 ft | 109 kts | 346° |
| 2026-04-27 08:17 | 57.22535 | -2.21051 | 709 ft | 112 kts | 341° |
| 2026-04-27 08:17 | 57.23229 | -2.21618 | 960 ft | 109 kts | 331° |
| 2026-04-27 08:17 | 57.23860 | -2.22466 | 1205 ft | 109 kts | 318° |
| 2026-04-27 08:17 | 57.24371 | -2.23534 | 1453 ft | 109 kts | 308° |
| 2026-04-27 08:18 | 57.24744 | -2.24776 | 1692 ft | 109 kts | 297° |
| 2026-04-27 08:18 | 57.24981 | -2.26129 | 1929 ft | 111 kts | 286° |
| 2026-04-27 08:18 | 57.25155 | -2.27544 | 2160 ft | 109 kts | 303° |
| 2026-04-27 08:18 | 57.25752 | -2.28339 | 2388 ft | 107 kts | 349° |
| 2026-04-27 08:19 | 57.26495 | -2.28248 | 2609 ft | 107 kts | 5° |
| 2026-04-27 08:19 | 57.27245 | -2.28045 | 2842 ft | 108 kts | 4° |
| 2026-04-27 08:19 | 57.27981 | -2.27856 | 3079 ft | 108 kts | 4° |
| 2026-04-27 08:19 | 57.28727 | -2.27669 | 3306 ft | 106 kts | 4° |
| 2026-04-27 08:20 | 57.29468 | -2.27487 | 3527 ft | 106 kts | 4° |
| 2026-04-27 08:20 | 57.30195 | -2.27311 | 3743 ft | 106 kts | 4° |
| 2026-04-27 08:20 | 57.30926 | -2.26984 | 3950 ft | 111 kts | 28° |
| 2026-04-27 08:20 | 57.31487 | -2.25926 | 4170 ft | 115 kts | 44° |
| 2026-04-27 08:21 | 57.31998 | -2.24785 | 4383 ft | 115 kts | 44° |
| 2026-04-27 08:21 | 57.32513 | -2.23657 | 4598 ft | 115 kts | 43° |
| 2026-04-27 08:21 | 57.33040 | -2.22515 | 4810 ft | 115 kts | 44° |
| 2026-04-27 08:21 | 57.33567 | -2.21378 | 5020 ft | 115 kts | 43° |
| 2026-04-27 08:22 | 57.34090 | -2.20255 | 5223 ft | 116 kts | 42° |
| 2026-04-27 08:22 | 57.34626 | -2.19104 | 5456 ft | 117 kts | 44° |
| 2026-04-27 08:22 | 57.35176 | -2.17927 | 5702 ft | 116 kts | 43° |
| 2026-04-27 08:22 | 57.35709 | -2.16783 | 5917 ft | 116 kts | 43° |
| 2026-04-27 08:23 | 57.36250 | -2.15622 | 6146 ft | 116 kts | 43° |
| 2026-04-27 08:23 | 57.36808 | -2.14427 | 6351 ft | 116 kts | 43° |
| 2026-04-27 08:23 | 57.37368 | -2.13223 | 6569 ft | 116 kts | 42° |
| 2026-04-27 08:23 | 57.37934 | -2.12010 | 6810 ft | 116 kts | 41° |
| 2026-04-27 08:24 | 57.38469 | -2.10861 | 7013 ft | 116 kts | 41° |
| 2026-04-27 08:24 | 57.39022 | -2.09670 | 7199 ft | 116 kts | 42° |
| 2026-04-27 08:24 | 57.39584 | -2.08461 | 7408 ft | 116 kts | 42° |
| 2026-04-27 08:24 | 57.40159 | -2.07222 | 7622 ft | 116 kts | 41° |
| 2026-04-27 08:25 | 57.40729 | -2.05996 | 7820 ft | 116 kts | 41° |
| 2026-04-27 08:25 | 57.41322 | -2.04721 | 8020 ft | 116 kts | 42° |
| 2026-04-27 08:25 | 57.41914 | -2.03444 | 8220 ft | 117 kts | 42° |
| 2026-04-27 08:25 | 57.42504 | -2.02173 | 8425 ft | 117 kts | 42° |
| 2026-04-27 08:26 | 57.43090 | -2.00907 | 8628 ft | 118 kts | 43° |
| 2026-04-27 08:26 | 57.43686 | -1.99621 | 8838 ft | 118 kts | 42° |
| 2026-04-27 08:26 | 57.44296 | -1.98307 | 8986 ft | 124 kts | 43° |
| 2026-04-27 08:26 | 57.44929 | -1.96942 | 9098 ft | 129 kts | 43° |
| 2026-04-27 08:27 | 57.45586 | -1.95518 | 9239 ft | 131 kts | 43° |
| 2026-04-27 08:27 | 57.46254 | -1.94075 | 9296 ft | 138 kts | 43° |
| 2026-04-27 08:27 | 57.46941 | -1.92586 | 9288 ft | 138 kts | 43° |
| 2026-04-27 08:27 | 57.47620 | -1.91112 | 9287 ft | 136 kts | 43° |
| 2026-04-27 08:28 | 57.48267 | -1.89710 | 9288 ft | 137 kts | 43° |
| 2026-04-27 08:28 | 57.48952 | -1.88227 | 9289 ft | 140 kts | 43° |
| 2026-04-27 08:28 | 57.49666 | -1.86677 | 9289 ft | 142 kts | 43° |
| 2026-04-27 08:28 | 57.50403 | -1.85076 | 9289 ft | 144 kts | 44° |
| 2026-04-27 08:29 | 57.51125 | -1.83508 | 9288 ft | 145 kts | 44° |
| 2026-04-27 08:29 | 57.51865 | -1.81898 | 9288 ft | 146 kts | 44° |
| 2026-04-27 08:29 | 57.52612 | -1.80272 | 9285 ft | 146 kts | 44° |
| 2026-04-27 08:29 | 57.53360 | -1.78643 | 9286 ft | 147 kts | 44° |
| 2026-04-27 08:30 | 57.54101 | -1.77028 | 9286 ft | 147 kts | 44° |
| 2026-04-27 08:30 | 57.54851 | -1.75390 | 9283 ft | 147 kts | 44° |
| 2026-04-27 08:30 | 57.55586 | -1.73788 | 9284 ft | 147 kts | 44° |
| 2026-04-27 08:30 | 57.56314 | -1.72197 | 9283 ft | 147 kts | 44° |
| 2026-04-27 08:31 | 57.57079 | -1.70526 | 9281 ft | 147 kts | 44° |
| 2026-04-27 08:31 | 57.57802 | -1.68944 | 9281 ft | 147 kts | 44° |
| 2026-04-27 08:31 | 57.58528 | -1.67357 | 9283 ft | 147 kts | 44° |
| 2026-04-27 08:31 | 57.59244 | -1.65796 | 9284 ft | 147 kts | 44° |
| 2026-04-27 08:32 | 57.59959 | -1.64240 | 9285 ft | 146 kts | 44° |
| 2026-04-27 08:32 | 57.60667 | -1.62701 | 9288 ft | 146 kts | 44° |
| 2026-04-27 08:32 | 57.61376 | -1.61157 | 9292 ft | 146 kts | 44° |
| 2026-04-27 08:32 | 57.62088 | -1.59601 | 9297 ft | 146 kts | 44° |
| 2026-04-27 08:33 | 57.62775 | -1.58096 | 9300 ft | 146 kts | 44° |
| 2026-04-27 08:33 | 57.63500 | -1.56506 | 9301 ft | 146 kts | 44° |
| 2026-04-27 08:33 | 57.64207 | -1.54953 | 9300 ft | 146 kts | 44° |
| 2026-04-27 08:33 | 57.64942 | -1.53336 | 9301 ft | 145 kts | 44° |
| 2026-04-27 08:34 | 57.65663 | -1.51749 | 9301 ft | 146 kts | 44° |
| 2026-04-27 08:34 | 57.66410 | -1.50104 | 9301 ft | 146 kts | 44° |
| 2026-04-27 08:34 | 57.67145 | -1.48483 | 9300 ft | 146 kts | 44° |
| 2026-04-27 08:34 | 57.67878 | -1.46866 | 9300 ft | 146 kts | 44° |
| 2026-04-27 08:35 | 57.68617 | -1.45235 | 9300 ft | 146 kts | 44° |
| 2026-04-27 08:35 | 57.69354 | -1.43605 | 9300 ft | 146 kts | 44° |
| 2026-04-27 08:35 | 57.70091 | -1.41975 | 9301 ft | 146 kts | 44° |
| 2026-04-27 08:35 | 57.70811 | -1.40380 | 9300 ft | 146 kts | 44° |
| 2026-04-27 08:36 | 57.71545 | -1.38757 | 9300 ft | 146 kts | 44° |
| 2026-04-27 08:36 | 57.72281 | -1.37126 | 9300 ft | 145 kts | 44° |
| 2026-04-27 08:36 | 57.73013 | -1.35502 | 9300 ft | 145 kts | 44° |
| 2026-04-27 08:36 | 57.73733 | -1.33905 | 9300 ft | 146 kts | 45° |
| 2026-04-27 08:37 | 57.74462 | -1.32286 | 9299 ft | 146 kts | 45° |
| 2026-04-27 08:37 | 57.75193 | -1.30662 | 9299 ft | 146 kts | 45° |
| 2026-04-27 08:37 | 57.75903 | -1.29083 | 9300 ft | 146 kts | 45° |
| 2026-04-27 08:37 | 57.76625 | -1.27476 | 9299 ft | 146 kts | 45° |
| 2026-04-27 08:38 | 57.77352 | -1.25856 | 9299 ft | 146 kts | 45° |
| 2026-04-27 08:38 | 57.78082 | -1.24231 | 9300 ft | 145 kts | 45° |
| 2026-04-27 08:38 | 57.78801 | -1.22628 | 9299 ft | 145 kts | 45° |
| 2026-04-27 08:38 | 57.79523 | -1.21016 | 9299 ft | 145 kts | 45° |
| 2026-04-27 08:39 | 57.80249 | -1.19396 | 9299 ft | 145 kts | 45° |
| 2026-04-27 08:39 | 57.80975 | -1.17776 | 9299 ft | 145 kts | 45° |
| 2026-04-27 08:39 | 57.81699 | -1.16156 | 9299 ft | 145 kts | 45° |
| 2026-04-27 08:39 | 57.82436 | -1.14508 | 9299 ft | 145 kts | 45° |
| 2026-04-27 08:40 | 57.83172 | -1.12859 | 9299 ft | 146 kts | 45° |
| 2026-04-27 08:40 | 57.83905 | -1.11217 | 9299 ft | 146 kts | 45° |
| 2026-04-27 08:40 | 57.84639 | -1.09572 | 9299 ft | 146 kts | 45° |
| 2026-04-27 08:40 | 57.85382 | -1.07904 | 9298 ft | 145 kts | 45° |
| 2026-04-27 08:41 | 57.86120 | -1.06247 | 9298 ft | 145 kts | 45° |
| 2026-04-27 08:41 | 57.86846 | -1.04617 | 9298 ft | 145 kts | 45° |
| 2026-04-27 08:41 | 57.87587 | -1.02950 | 9297 ft | 145 kts | 45° |
| 2026-04-27 08:41 | 57.88331 | -1.01277 | 9297 ft | 145 kts | 45° |
| 2026-04-27 08:42 | 57.89059 | -0.99638 | 9299 ft | 146 kts | 45° |
| 2026-04-27 08:42 | 57.89804 | -0.97958 | 9298 ft | 146 kts | 45° |
| 2026-04-27 08:42 | 57.90541 | -0.96297 | 9297 ft | 146 kts | 45° |
| 2026-04-27 08:42 | 57.91283 | -0.94624 | 9295 ft | 146 kts | 45° |
| 2026-04-27 08:43 | 57.92003 | -0.92996 | 9293 ft | 146 kts | 45° |
| 2026-04-27 08:43 | 57.92724 | -0.91368 | 9290 ft | 151 kts | 45° |
| 2026-04-27 08:43 | 57.93487 | -0.89645 | 9284 ft | 155 kts | 46° |
| 2026-04-27 08:43 | 57.94252 | -0.87915 | 9280 ft | 157 kts | 46° |
| 2026-04-27 08:44 | 57.95029 | -0.86156 | 9281 ft | 158 kts | 46° |
| 2026-04-27 08:44 | 57.95816 | -0.84371 | 9281 ft | 159 kts | 46° |
| 2026-04-27 08:44 | 57.96592 | -0.82610 | 9282 ft | 159 kts | 46° |
| 2026-04-27 08:44 | 57.97386 | -0.80809 | 9285 ft | 159 kts | 46° |
| 2026-04-27 08:45 | 57.98174 | -0.79019 | 9281 ft | 159 kts | 46° |
| 2026-04-27 08:45 | 57.98978 | -0.77191 | 9279 ft | 159 kts | 46° |
| 2026-04-27 08:45 | 57.99750 | -0.75434 | 9280 ft | 159 kts | 46° |
| 2026-04-27 08:45 | 58.00533 | -0.73653 | 9284 ft | 158 kts | 46° |
| 2026-04-27 08:46 | 58.01313 | -0.71877 | 9290 ft | 158 kts | 46° |
| 2026-04-27 08:46 | 58.02085 | -0.70116 | 9296 ft | 158 kts | 46° |
| 2026-04-27 08:46 | 58.02851 | -0.68367 | 9299 ft | 158 kts | 46° |
| 2026-04-27 08:46 | 58.03645 | -0.66554 | 9300 ft | 158 kts | 46° |
| 2026-04-27 08:47 | 58.04418 | -0.64789 | 9298 ft | 158 kts | 46° |
| 2026-04-27 08:47 | 58.05183 | -0.63037 | 9299 ft | 158 kts | 46° |
| 2026-04-27 08:47 | 58.05960 | -0.61262 | 9299 ft | 158 kts | 46° |
| 2026-04-27 08:47 | 58.06753 | -0.59444 | 9299 ft | 158 kts | 46° |
| 2026-04-27 08:48 | 58.07528 | -0.57669 | 9300 ft | 158 kts | 46° |
| 2026-04-27 08:48 | 58.08295 | -0.55910 | 9299 ft | 158 kts | 46° |
| 2026-04-27 08:48 | 58.09045 | -0.54189 | 9297 ft | 157 kts | 46° |
| 2026-04-27 08:48 | 58.09778 | -0.52505 | 9298 ft | 157 kts | 46° |
| 2026-04-27 08:49 | 58.10513 | -0.50816 | 9300 ft | 157 kts | 46° |
| 2026-04-27 08:49 | 58.11247 | -0.49128 | 9301 ft | 157 kts | 46° |
| 2026-04-27 08:49 | 58.11980 | -0.47438 | 9304 ft | 156 kts | 47° |
| 2026-04-27 08:49 | 58.12723 | -0.45725 | 9303 ft | 156 kts | 46° |
| 2026-04-27 08:50 | 58.13440 | -0.44076 | 9300 ft | 155 kts | 47° |
| 2026-04-27 08:50 | 58.14154 | -0.42428 | 9292 ft | 153 kts | 46° |
| 2026-04-27 08:50 | 58.14830 | -0.40867 | 9288 ft | 151 kts | 46° |
| 2026-04-27 08:50 | 58.15510 | -0.39293 | 9297 ft | 148 kts | 47° |
| 2026-04-27 08:51 | 58.16179 | -0.37747 | 9298 ft | 147 kts | 46° |
| 2026-04-27 08:51 | 58.16831 | -0.36240 | 9300 ft | 146 kts | 46° |
| 2026-04-27 08:51 | 58.17488 | -0.34718 | 9297 ft | 144 kts | 47° |
| 2026-04-27 08:51 | 58.18118 | -0.33259 | 9299 ft | 142 kts | 47° |
| 2026-04-27 08:52 | 58.18751 | -0.31794 | 9307 ft | 140 kts | 47° |
| 2026-04-27 08:52 | 58.19367 | -0.30367 | 9305 ft | 138 kts | 47° |
| 2026-04-27 08:52 | 58.19983 | -0.28937 | 9301 ft | 136 kts | 47° |
| 2026-04-27 08:52 | 58.20576 | -0.27558 | 9294 ft | 133 kts | 47° |
| 2026-04-27 08:53 | 58.21164 | -0.26196 | 9314 ft | 130 kts | 49° |
| 2026-04-27 08:53 | 58.21732 | -0.24870 | 9315 ft | 126 kts | 49° |
| 2026-04-27 08:53 | 58.22287 | -0.23577 | 9281 ft | 122 kts | 47° |
| 2026-04-27 08:53 | 58.22815 | -0.22349 | 9299 ft | 116 kts | 47° |
| 2026-04-27 08:54 | 58.23319 | -0.21174 | 9296 ft | 112 kts | 48° |
| 2026-04-27 08:54 | 58.23802 | -0.20043 | 9304 ft | 106 kts | 46° |
| 2026-04-27 08:54 | 58.24254 | -0.18991 | 9312 ft | 100 kts | 47° |
| 2026-04-27 08:54 | 58.24682 | -0.17983 | 9296 ft | 93 kts | 47° |
| 2026-04-27 08:55 | 58.25071 | -0.17079 | 9261 ft | 82 kts | 42° |
| 2026-04-27 08:55 | 58.25446 | -0.16178 | 9054 ft | 87 kts | 58° |
| 2026-04-27 08:55 | 58.25087 | -0.15282 | 8619 ft | 126 kts | 182° |
| 2026-04-27 08:55 | 58.24330 | -0.15701 | 8992 ft | 106 kts | 224° |
| 2026-04-27 08:56 | 58.23920 | -0.17078 | 9038 ft | 111 kts | 276° |
| 2026-04-27 08:56 | 58.24206 | -0.18455 | 9147 ft | 104 kts | 326° |
| 2026-04-27 08:56 | 58.24929 | -0.18791 | 9267 ft | 103 kts | 16° |
| 2026-04-27 08:56 | 58.25535 | -0.17790 | 9334 ft | 116 kts | 57° |
| 2026-04-27 08:57 | 58.26456 | -0.14759 | 9292 ft | 133 kts | 52° |
| 2026-04-27 08:57 | 58.26974 | -0.13265 | 9286 ft | 134 kts | 50° |
| 2026-04-27 08:57 | 58.27521 | -0.11800 | 9292 ft | 134 kts | 52° |
| 2026-04-27 08:58 | 58.28085 | -0.10341 | 9296 ft | 132 kts | 50° |
| 2026-04-27 08:58 | 58.28659 | -0.08902 | 9290 ft | 132 kts | 49° |
| 2026-04-27 08:58 | 58.29227 | -0.07507 | 9293 ft | 131 kts | 49° |
| 2026-04-27 08:58 | 58.29793 | -0.06132 | 9292 ft | 130 kts | 49° |
| 2026-04-27 08:59 | 58.30357 | -0.04779 | 9288 ft | 128 kts | 50° |
| 2026-04-27 08:59 | 58.30915 | -0.03449 | 9285 ft | 126 kts | 49° |
| 2026-04-27 08:59 | 58.31456 | -0.02160 | 9322 ft | 123 kts | 47° |
| 2026-04-27 08:59 | 58.32010 | -0.00847 | 9307 ft | 121 kts | 48° |
| 2026-04-27 09:00 | 58.32547 | 0.00424 | 9289 ft | 118 kts | 46° |
| 2026-04-27 09:00 | 58.33059 | 0.01636 | 9293 ft | 112 kts | 48° |
| 2026-04-27 09:00 | 58.33556 | 0.02807 | 9295 ft | 109 kts | 47° |
| 2026-04-27 09:00 | 58.34030 | 0.03929 | 9299 ft | 104 kts | 47° |
| 2026-04-27 09:01 | 58.34497 | 0.05037 | 9292 ft | 99 kts | 48° |